createdAt,value
2019-01-31T00:02:11.263Z,2.3
2019-01-31T00:12:17.162Z,2.3
2019-01-31T00:22:16.966Z,1.7
2019-01-31T00:32:17.608Z,2.1
2019-01-31T00:42:28.170Z,1.7
2019-01-31T00:52:28.360Z,1.9
2019-01-31T01:02:27.918Z,1.6
2019-01-31T01:12:38.965Z,1.6
2019-01-31T01:22:39.256Z,2.1
2019-01-31T01:32:39.538Z,2.1
2019-01-31T01:42:50.313Z,2.2
2019-01-31T01:52:51.506Z,2.5
2019-01-31T02:02:51.458Z,2.4
2019-01-31T02:13:01.629Z,2.5
2019-01-31T02:23:02.378Z,3.6
2019-01-31T02:33:02.273Z,2.2
2019-01-31T02:43:14.280Z,2
2019-01-31T02:53:14.437Z,2
2019-01-31T03:03:14.825Z,1.9
2019-01-31T03:13:26.664Z,1.3
2019-01-31T03:23:41.993Z,1.7
2019-01-31T03:33:43.307Z,1.7
2019-01-31T03:43:43.245Z,1.9
2019-01-31T03:53:42.854Z,2.1
2019-01-31T04:03:46.697Z,2.6
2019-01-31T04:13:50.327Z,3.8
2019-01-31T04:23:50.980Z,2.2
2019-01-31T04:33:50.459Z,7.7
2019-01-31T04:44:02.521Z,4.2
2019-01-31T04:54:02.135Z,2.2
2019-01-31T05:04:01.703Z,1.6
2019-01-31T05:14:14.336Z,13.2
2019-01-31T05:24:13.850Z,4.6
2019-01-31T05:34:13.442Z,9.1
2019-01-31T05:44:26.582Z,6.7
2019-01-31T05:54:25.962Z,2.7
2019-01-31T06:04:25.568Z,3.7
2019-01-31T06:14:38.044Z,3.6
2019-01-31T06:24:37.704Z,5.2
2019-01-31T06:34:40.300Z,2
2019-01-31T06:44:49.735Z,2.7
2019-01-31T06:54:49.115Z,7.2
2019-01-31T07:04:48.652Z,13.2
2019-01-31T07:15:00.798Z,3
2019-01-31T07:25:00.501Z,2.8
2019-01-31T07:35:00.151Z,3.5
2019-01-31T07:45:12.251Z,5.9
2019-01-31T07:55:11.782Z,2.7
2019-01-31T08:05:11.973Z,2
2019-01-31T08:15:23.691Z,2.1
2019-01-31T08:25:23.227Z,2.6
2019-01-31T08:35:25.839Z,2.8
2019-01-31T08:45:35.023Z,3.4
2019-01-31T08:55:36.821Z,2.6
2019-01-31T09:05:36.333Z,2.3
2019-01-31T09:15:46.397Z,2.7
2019-01-31T09:25:46.057Z,2.3
2019-01-31T09:35:45.490Z,4.6
2019-01-31T09:45:57.223Z,2.6
2019-01-31T09:55:58.975Z,2.8
2019-01-31T10:05:59.008Z,2.5
2019-01-31T10:16:11.258Z,1.8
2019-01-31T10:26:13.967Z,2.8
2019-01-31T10:36:13.724Z,2.7
2019-01-31T10:46:23.038Z,3
2019-01-31T10:56:22.513Z,3.5
2019-01-31T11:06:21.843Z,3.3
2019-01-31T11:16:31.802Z,2.5
2019-01-31T11:26:43.145Z,2.5
2019-01-31T11:36:42.784Z,2.2
2019-01-31T11:46:42.985Z,2.5
2019-01-31T11:56:42.815Z,2.2
2019-01-31T12:06:42.596Z,1.6
2019-01-31T12:16:54.597Z,1.7
2019-01-31T12:26:54.311Z,1.3
2019-01-31T12:36:54.041Z,2
2019-01-31T12:47:06.361Z,1.5
2019-01-31T12:57:05.741Z,1.6
2019-01-31T13:07:05.423Z,1.3
2019-01-31T13:17:17.074Z,1.5
2019-01-31T13:27:16.575Z,1.4
2019-01-31T13:37:17.761Z,2
2019-01-31T13:47:28.763Z,1.6
2019-01-31T13:57:28.410Z,1.6
2019-01-31T14:07:27.984Z,2
2019-01-31T14:17:40.422Z,3
2019-01-31T14:27:40.009Z,1.9
2019-01-31T14:37:40.170Z,2.4
2019-01-31T14:47:51.986Z,3.7
2019-01-31T14:57:51.301Z,2.4
2019-01-31T15:07:51.056Z,2
2019-01-31T15:18:08.818Z,1.8
2019-01-31T15:28:10.246Z,2.2
2019-01-31T15:38:10.014Z,2.1
2019-01-31T15:48:17.753Z,6.1
2019-01-31T15:58:18.604Z,4.3
2019-01-31T16:08:19.855Z,6.9
2019-01-31T16:18:45.422Z,9
2019-01-31T16:28:48.465Z,10.4
2019-01-31T16:38:49.841Z,19.3
2019-01-31T16:48:49.385Z,14.9
2019-01-31T16:58:49.186Z,13.9
2019-01-31T17:08:51.521Z,11.7
2019-01-31T17:18:51.134Z,18.2
2019-01-31T17:28:53.584Z,19.7
2019-01-31T17:38:53.301Z,11.1
2019-01-31T17:49:02.043Z,7.5
2019-01-31T17:59:05.958Z,6.8
2019-01-31T18:09:16.482Z,16.1
2019-01-31T18:19:15.995Z,12.5
2019-01-31T18:29:15.621Z,12.6
2019-01-31T18:39:16.487Z,16.8
2019-01-31T18:49:24.690Z,18.8
2019-01-31T18:59:24.577Z,14.1
2019-01-31T19:09:24.150Z,8.7
2019-01-31T19:19:39.614Z,3.4
2019-01-31T19:29:41.830Z,3.2
2019-01-31T19:39:51.047Z,4.4
2019-01-31T19:49:53.570Z,2.9
2019-01-31T19:59:54.704Z,2.2
2019-01-31T20:09:57.000Z,2.1
2019-01-31T20:20:00.441Z,2.1
2019-01-31T20:30:00.370Z,3.4
2019-01-31T20:40:01.065Z,2.2
2019-01-31T20:50:12.323Z,1.6
2019-01-31T21:00:16.496Z,2.1
2019-01-31T21:10:20.174Z,2.1
2019-01-31T21:20:27.030Z,1.7
2019-01-31T21:30:30.777Z,1.8
2019-01-31T21:40:36.103Z,1.9
2019-01-31T21:50:39.190Z,1.4
2019-01-31T22:00:42.003Z,1.4
2019-01-31T22:11:00.482Z,1.9
2019-01-31T22:21:06.103Z,3.3
2019-01-31T22:31:07.572Z,2
2019-01-31T22:41:10.127Z,2.3
2019-01-31T22:51:12.982Z,1.9
2019-01-31T23:01:19.031Z,2
2019-01-31T23:11:22.687Z,2
2019-01-31T23:21:26.122Z,2.2
2019-01-31T23:31:29.865Z,1.8
2019-01-31T23:41:34.151Z,1.8
2019-01-31T23:51:37.846Z,1.8
